createdAt,value
2023-10-19T00:01:42.583Z,4.05
2023-10-19T00:04:29.974Z,3.75
2023-10-19T00:07:04.734Z,3.67
2023-10-19T00:09:52.150Z,3.55
2023-10-19T00:12:24.892Z,3.90
2023-10-19T00:14:57.424Z,3.83
2023-10-19T00:17:43.238Z,4.20
2023-10-19T00:20:23.086Z,4.10
2023-10-19T00:23:07.325Z,4.50
2023-10-19T00:25:41.437Z,4.22
2023-10-19T00:28:27.424Z,5.10
2023-10-19T00:31:10.490Z,3.90
2023-10-19T00:33:43.077Z,3.33
2023-10-19T00:36:27.561Z,2.50
2023-10-19T00:39:01.793Z,2.60
2023-10-19T00:41:48.772Z,3.37
2023-10-19T00:44:25.475Z,2.52
2023-10-19T00:47:11.673Z,2.55
2023-10-19T00:52:31.363Z,2.40
2023-10-19T00:55:07.197Z,2.08
2023-10-19T00:57:53.742Z,2.00
2023-10-19T01:00:36.327Z,2.58
2023-10-19T01:03:21.363Z,2.10
2023-10-19T01:05:55.443Z,1.98
2023-10-19T01:08:29.851Z,2.08
2023-10-19T01:11:17.081Z,2.42
2023-10-19T01:14:00.647Z,2.42
2023-10-19T01:16:33.266Z,2.40
2023-10-19T01:19:18.059Z,2.30
2023-10-19T01:21:54.647Z,2.00
2023-10-19T01:24:42.074Z,2.27
2023-10-19T01:27:15.212Z,2.30
2023-10-19T01:30:03.016Z,2.67
2023-10-19T01:32:47.581Z,2.20
2023-10-19T01:35:20.459Z,2.12
2023-10-19T01:37:53.097Z,2.30
2023-10-19T01:40:37.403Z,2.20
2023-10-19T01:43:26.149Z,2.37
2023-10-19T01:46:14.675Z,2.50
2023-10-19T01:48:48.156Z,2.27
2023-10-19T01:51:37.664Z,2.20
2023-10-19T01:54:22.108Z,2.40
2023-10-19T01:56:58.264Z,2.40
2023-10-19T01:59:42.219Z,2.50
2023-10-19T02:02:15.677Z,2.15
2023-10-19T02:05:01.159Z,2.92
2023-10-19T02:07:45.508Z,2.85
2023-10-19T02:10:20.071Z,2.98
2023-10-19T02:15:36.767Z,2.60
2023-10-19T02:18:10.220Z,2.77
2023-10-19T02:20:55.241Z,2.87
2023-10-19T02:23:40.733Z,2.83
2023-10-19T02:26:15.077Z,2.65
2023-10-19T02:28:59.734Z,2.75
2023-10-19T02:31:33.046Z,1.40
2023-10-19T02:34:19.168Z,2.37
2023-10-19T02:36:51.883Z,2.27
2023-10-19T02:39:37.970Z,2.87
2023-10-19T02:42:10.642Z,2.58
2023-10-19T02:44:55.542Z,2.10
2023-10-19T02:47:38.596Z,2.35
2023-10-19T02:50:13.029Z,2.70
2023-10-19T02:52:59.083Z,2.45
2023-10-19T02:55:32.715Z,2.52
2023-10-19T02:58:17.923Z,2.60
2023-10-19T03:01:02.664Z,2.77
2023-10-19T03:03:47.602Z,2.58
2023-10-19T03:06:24.565Z,2.87
2023-10-19T03:09:27.135Z,2.45
2023-10-19T03:12:15.880Z,2.83
2023-10-19T03:14:50.008Z,2.80
2023-10-19T03:17:34.612Z,3.37
2023-10-19T03:20:08.291Z,3.05
2023-10-19T03:22:52.971Z,3.10
2023-10-19T03:25:43.532Z,2.83
2023-10-19T03:28:28.155Z,2.87
2023-10-19T03:31:01.428Z,2.95
2023-10-19T03:33:49.111Z,3.05
2023-10-19T03:36:24.721Z,2.85
2023-10-19T03:38:57.886Z,2.37
2023-10-19T03:41:45.554Z,2.80
2023-10-19T03:44:22.939Z,2.45
2023-10-19T03:47:09.418Z,2.35
2023-10-19T03:49:46.360Z,2.77
2023-10-19T03:52:32.886Z,3.10
2023-10-19T03:55:07.394Z,2.98
2023-10-19T03:57:55.003Z,2.70
2023-10-19T04:03:01.220Z,2.67
2023-10-19T04:05:48.868Z,3.15
2023-10-19T04:08:26.278Z,2.77
2023-10-19T04:11:12.904Z,2.85
2023-10-19T04:14:00.496Z,3.00
2023-10-19T04:16:35.501Z,3.12
2023-10-19T04:19:21.012Z,3.10
2023-10-19T04:22:05.889Z,2.92
2023-10-19T04:24:56.331Z,3.35
2023-10-19T04:27:30.935Z,2.83
2023-10-19T04:30:18.114Z,2.80
2023-10-19T04:32:54.491Z,4.55
2023-10-19T04:35:30.767Z,3.33
2023-10-19T04:38:16.271Z,2.70
2023-10-19T04:40:50.869Z,3.22
2023-10-19T04:43:36.521Z,2.47
2023-10-19T04:46:13.939Z,2.60
2023-10-19T04:49:19.757Z,2.50
2023-10-19T04:52:19.081Z,3.20
2023-10-19T04:55:08.458Z,2.30
2023-10-19T04:57:42.298Z,2.80
2023-10-19T05:00:31.789Z,3.60
2023-10-19T05:03:07.939Z,2.83
2023-10-19T05:05:54.715Z,2.80
2023-10-19T05:08:39.602Z,3.10
2023-10-19T05:11:13.188Z,2.52
2023-10-19T05:13:57.815Z,3.20
2023-10-19T05:16:31.835Z,3.92
2023-10-19T05:19:16.538Z,4.50
2023-10-19T05:22:03.791Z,3.10
2023-10-19T05:24:49.182Z,3.10
2023-10-19T05:27:34.538Z,5.30
2023-10-19T05:30:25.595Z,3.95
2023-10-19T05:33:10.223Z,2.90
2023-10-19T05:35:43.184Z,3.27
2023-10-19T05:38:28.587Z,3.70
2023-10-19T05:41:01.731Z,3.00
2023-10-19T05:43:45.881Z,2.80
2023-10-19T05:46:21.201Z,2.85
2023-10-19T05:49:07.927Z,2.92
2023-10-19T05:51:43.159Z,2.58
2023-10-19T05:54:28.635Z,3.22
2023-10-19T05:57:01.555Z,3.45
2023-10-19T05:59:46.499Z,2.98
2023-10-19T06:02:33.755Z,2.90
2023-10-19T06:05:20.670Z,3.20
2023-10-19T06:07:54.519Z,2.72
2023-10-19T06:10:40.931Z,2.80
2023-10-19T06:13:14.193Z,2.30
2023-10-19T06:15:59.413Z,2.60
2023-10-19T06:18:33.227Z,2.77
2023-10-19T06:21:23.575Z,2.70
2023-10-19T06:23:56.589Z,2.95
2023-10-19T06:26:30.101Z,2.70
2023-10-19T06:29:14.988Z,2.10
2023-10-19T06:31:48.069Z,2.90
2023-10-19T06:34:34.415Z,2.92
2023-10-19T06:37:19.688Z,3.27
2023-10-19T06:40:10.225Z,3.33
2023-10-19T06:43:00.609Z,6.53
2023-10-19T06:45:47.384Z,3.15
2023-10-19T06:48:20.134Z,3.70
2023-10-19T06:51:04.910Z,3.08
2023-10-19T06:53:50.443Z,3.15
2023-10-19T06:56:24.122Z,2.98
2023-10-19T06:59:10.851Z,2.37
2023-10-19T07:01:56.540Z,3.10
2023-10-19T07:04:34.328Z,2.40
2023-10-19T07:07:23.218Z,2.10
2023-10-19T07:10:11.035Z,1.80
2023-10-19T07:12:59.575Z,2.25
2023-10-19T07:15:51.464Z,2.10
2023-10-19T07:18:26.179Z,2.70
2023-10-19T07:21:13.471Z,2.30
2023-10-19T07:27:19.359Z,2.45
2023-10-19T07:29:47.127Z,2.22
2023-10-19T07:32:32.930Z,2.77
2023-10-19T07:37:51.956Z,1.90
2023-10-19T07:43:01.043Z,2.00
2023-10-19T07:45:36.186Z,2.40
2023-10-19T07:48:23.979Z,2.25
2023-10-19T07:50:58.056Z,2.20
2023-10-19T07:53:32.140Z,6.08
2023-10-19T07:56:17.792Z,2.60
2023-10-19T07:59:02.541Z,2.40
2023-10-19T08:01:36.382Z,2.00
2023-10-19T08:04:21.545Z,2.25
2023-10-19T08:06:54.515Z,2.70
2023-10-19T08:09:42.092Z,3.05
2023-10-19T08:12:28.206Z,2.52
2023-10-19T08:15:04.730Z,2.35
2023-10-19T08:17:52.569Z,2.50
2023-10-19T08:20:34.821Z,2.55
2023-10-19T08:23:09.771Z,2.67
2023-10-19T08:25:57.247Z,2.77
2023-10-19T08:28:42.291Z,1.77
2023-10-19T08:31:16.659Z,2.00
2023-10-19T08:34:01.012Z,1.82
2023-10-19T08:36:51.174Z,1.67
2023-10-19T08:39:26.078Z,1.95
2023-10-19T08:42:12.662Z,1.98
2023-10-19T08:44:46.025Z,2.37
2023-10-19T08:47:33.198Z,2.58
2023-10-19T08:50:18.393Z,2.98
2023-10-19T08:52:55.433Z,2.67
2023-10-19T08:55:50.179Z,2.42
2023-10-19T08:58:19.637Z,3.30
2023-10-19T09:01:11.647Z,3.50
2023-10-19T09:04:02.447Z,3.10
2023-10-19T09:06:51.796Z,4.65
2023-10-19T09:09:38.420Z,3.80
2023-10-19T09:12:13.509Z,2.80
2023-10-19T09:17:34.687Z,2.70
2023-10-19T09:20:21.707Z,2.47
2023-10-19T09:22:57.135Z,2.95
2023-10-19T09:25:43.359Z,3.20
2023-10-19T09:28:16.263Z,3.87
2023-10-19T09:31:05.194Z,3.37
2023-10-19T09:33:46.571Z,4.08
2023-10-19T09:36:33.750Z,2.77
2023-10-19T09:39:09.231Z,2.37
2023-10-19T09:41:56.970Z,3.30
2023-10-19T09:44:35.152Z,1.80
2023-10-19T09:47:12.208Z,2.40
2023-10-19T09:49:57.445Z,3.37
2023-10-19T09:52:32.915Z,2.80
2023-10-19T09:55:29.201Z,3.65
2023-10-19T09:58:23.997Z,2.90
2023-10-19T10:00:59.056Z,3.00
2023-10-19T10:03:53.353Z,2.37
2023-10-19T10:06:55.405Z,3.70
2023-10-19T10:09:31.034Z,3.40
2023-10-19T10:12:26.564Z,2.58
2023-10-19T10:15:13.021Z,2.90
2023-10-19T10:17:50.227Z,2.90
2023-10-19T10:20:36.093Z,2.20
2023-10-19T10:23:30.602Z,4.45
2023-10-19T10:26:06.748Z,3.33
2023-10-19T10:28:54.827Z,2.30
2023-10-19T10:31:28.835Z,3.45
2023-10-19T10:34:34.399Z,3.12
2023-10-19T10:37:10.115Z,2.90
2023-10-19T10:40:00.725Z,2.30
2023-10-19T10:42:35.880Z,2.65
2023-10-19T10:45:25.884Z,2.47
2023-10-19T10:48:19.013Z,3.20
2023-10-19T10:50:52.515Z,3.00
2023-10-19T10:53:40.551Z,3.20
2023-10-19T10:56:14.328Z,3.10
2023-10-19T10:58:58.332Z,2.47
2023-10-19T11:01:35.082Z,4.47
2023-10-19T11:04:14.502Z,4.05
2023-10-19T11:06:58.455Z,3.25
2023-10-19T11:09:35.378Z,2.72
2023-10-19T11:12:20.918Z,2.40
2023-10-19T11:15:00.947Z,6.20
2023-10-19T11:17:47.836Z,2.80
2023-10-19T11:20:27.487Z,3.20
2023-10-19T11:23:12.448Z,2.60
2023-10-19T11:25:45.784Z,3.27
2023-10-19T11:28:29.951Z,3.00
2023-10-19T11:31:27.026Z,3.33
2023-10-19T11:34:14.655Z,2.90
2023-10-19T11:36:47.332Z,3.75
2023-10-19T11:39:34.257Z,3.42
2023-10-19T11:42:21.491Z,2.87
2023-10-19T11:45:07.785Z,2.52
2023-10-19T11:47:55.129Z,3.17
2023-10-19T11:50:41.056Z,2.42
2023-10-19T11:55:59.295Z,3.20
2023-10-19T11:58:35.008Z,2.80
2023-10-19T12:01:20.323Z,2.70
2023-10-19T12:03:54.052Z,2.65
2023-10-19T12:06:46.801Z,3.40
2023-10-19T12:09:26.170Z,3.40
2023-10-19T12:12:14.906Z,2.87
2023-10-19T12:14:51.515Z,3.92
2023-10-19T12:17:38.388Z,4.20
2023-10-19T12:20:26.206Z,4.40
2023-10-19T12:23:00.482Z,3.95
2023-10-19T12:25:53.983Z,2.12
2023-10-19T12:28:13.143Z,2.75
2023-10-19T12:30:48.423Z,2.02
2023-10-19T12:33:35.273Z,2.30
2023-10-19T12:36:32.242Z,2.50
2023-10-19T12:42:33.893Z,3.00
2023-10-19T12:45:12.739Z,2.10
2023-10-19T12:48:20.424Z,2.22
2023-10-19T12:50:55.410Z,2.00
2023-10-19T12:53:44.656Z,2.02
2023-10-19T12:56:23.334Z,2.50
2023-10-19T12:58:58.588Z,3.37
2023-10-19T13:01:47.343Z,2.98
2023-10-19T13:04:34.395Z,2.47
2023-10-19T13:07:22.838Z,2.42
2023-10-19T13:10:09.837Z,2.90
2023-10-19T13:12:44.086Z,2.80
2023-10-19T13:15:32.418Z,2.50
2023-10-19T13:18:21.132Z,4.50
2023-10-19T13:21:10.657Z,3.17
2023-10-19T13:23:55.022Z,3.70
2023-10-19T13:26:29.977Z,3.20
2023-10-19T13:29:22.802Z,2.08
2023-10-19T13:31:57.660Z,2.50
2023-10-19T13:34:44.104Z,2.10
2023-10-19T13:40:02.560Z,3.27
2023-10-19T13:42:38.200Z,2.95
2023-10-19T13:45:28.909Z,2.37
2023-10-19T13:48:17.328Z,2.60
2023-10-19T13:50:53.661Z,3.15
2023-10-19T13:53:42.524Z,2.00
2023-10-19T13:56:20.403Z,4.92
2023-10-19T13:59:07.113Z,3.50
2023-10-19T14:01:56.318Z,3.58
2023-10-19T14:04:29.618Z,3.55
2023-10-19T14:07:16.507Z,2.52
2023-10-19T14:10:01.417Z,2.60
2023-10-19T14:12:35.679Z,2.30
2023-10-19T14:15:22.522Z,3.10
2023-10-19T14:18:08.323Z,3.10
2023-10-19T14:20:42.208Z,2.20
2023-10-19T14:23:26.978Z,2.85
2023-10-19T14:26:13.585Z,2.20
2023-10-19T14:29:00.285Z,1.95
2023-10-19T14:31:37.669Z,4.22
2023-10-19T14:34:22.993Z,5.10
2023-10-19T14:36:56.722Z,4.80
2023-10-19T14:39:30.550Z,4.15
2023-10-19T14:42:16.939Z,5.65
2023-10-19T14:44:50.574Z,5.25
2023-10-19T14:47:38.164Z,4.85
2023-10-19T14:50:15.194Z,4.90
2023-10-19T14:53:00.664Z,4.92
2023-10-19T14:55:34.526Z,4.72
2023-10-19T14:58:19.881Z,4.42
2023-10-19T15:01:06.672Z,3.90
2023-10-19T15:03:52.382Z,4.00
2023-10-19T15:06:26.162Z,4.05
2023-10-19T15:09:12.633Z,3.83
2023-10-19T15:11:46.776Z,3.42
2023-10-19T15:14:40.285Z,4.00
2023-10-19T15:17:13.585Z,4.30
2023-10-19T15:20:00.417Z,4.20
2023-10-19T15:22:33.949Z,4.62
2023-10-19T15:25:20.584Z,4.05
2023-10-19T15:28:07.848Z,3.75
2023-10-19T15:30:54.289Z,4.75
2023-10-19T15:33:29.639Z,6.35
2023-10-19T15:36:15.007Z,4.20
2023-10-19T15:39:02.654Z,4.65
2023-10-19T15:41:37.243Z,7.67
2023-10-19T15:44:21.984Z,4.78
2023-10-19T15:46:55.848Z,4.70
2023-10-19T15:49:54.908Z,5.70
2023-10-19T15:52:32.086Z,5.00
2023-10-19T15:55:10.430Z,5.05
2023-10-19T15:57:44.977Z,4.15
2023-10-19T16:00:28.195Z,4.53
2023-10-19T16:03:01.496Z,3.62
2023-10-19T16:05:46.882Z,5.05
2023-10-19T16:08:20.312Z,4.53
2023-10-19T16:11:12.363Z,6.55
2023-10-19T16:13:57.324Z,4.90
2023-10-19T16:16:33.281Z,5.53
2023-10-19T16:19:21.984Z,4.90
2023-10-19T16:21:55.729Z,4.80
2023-10-19T16:24:40.934Z,2.70
2023-10-19T16:27:14.171Z,2.17
2023-10-19T16:29:59.093Z,2.10
2023-10-19T16:32:34.197Z,2.20
2023-10-19T16:35:20.726Z,2.60
2023-10-19T16:37:53.972Z,3.42
2023-10-19T16:40:37.012Z,2.25
2023-10-19T16:43:13.871Z,2.60
2023-10-19T16:46:02.467Z,2.20
2023-10-19T16:48:38.674Z,2.33
2023-10-19T16:51:24.183Z,2.10
2023-10-19T16:53:58.182Z,2.72
2023-10-19T16:56:31.121Z,4.17
2023-10-19T16:59:18.621Z,1.92
2023-10-19T17:01:54.639Z,2.52
2023-10-19T17:04:42.158Z,3.10
2023-10-19T17:07:16.432Z,2.33
2023-10-19T17:10:03.028Z,2.10
2023-10-19T17:12:37.393Z,2.45
2023-10-19T17:15:23.702Z,3.95
2023-10-19T17:17:57.443Z,2.87
2023-10-19T17:20:31.288Z,3.05
2023-10-19T17:23:14.638Z,2.80
2023-10-19T17:25:48.593Z,3.17
2023-10-19T17:28:23.295Z,3.22
2023-10-19T17:31:09.590Z,3.22
2023-10-19T17:33:43.042Z,4.92
2023-10-19T17:36:30.137Z,4.20
2023-10-19T17:39:04.118Z,3.98
2023-10-19T17:41:49.951Z,4.78
2023-10-19T17:44:35.784Z,3.83
2023-10-19T17:47:10.070Z,4.05
2023-10-19T17:49:55.695Z,4.50
2023-10-19T17:52:41.423Z,4.40
2023-10-19T17:55:30.405Z,3.83
2023-10-19T17:58:06.578Z,4.03
2023-10-19T18:00:52.634Z,3.67
2023-10-19T18:03:27.231Z,4.55
2023-10-19T18:06:14.046Z,3.80
2023-10-19T18:08:59.809Z,4.40
2023-10-19T18:11:33.918Z,4.65
2023-10-19T18:14:20.062Z,4.53
2023-10-19T18:17:06.621Z,5.05
2023-10-19T18:22:26.647Z,6.28
2023-10-19T18:25:00.420Z,5.05
2023-10-19T18:27:34.837Z,5.50
2023-10-19T18:30:20.835Z,4.90
2023-10-19T18:33:08.413Z,5.40
2023-10-19T18:35:43.834Z,5.20
2023-10-19T18:38:28.377Z,5.37
2023-10-19T18:41:05.674Z,4.35
2023-10-19T18:43:51.736Z,4.12
2023-10-19T18:46:35.437Z,3.98
2023-10-19T18:49:11.840Z,4.47
2023-10-19T18:51:57.181Z,4.55
2023-10-19T18:54:31.548Z,4.55
2023-10-19T18:57:15.139Z,4.58
2023-10-19T18:59:48.099Z,4.60
2023-10-19T19:02:33.756Z,4.60
2023-10-19T19:05:08.680Z,4.83
2023-10-19T19:07:54.570Z,4.87
2023-10-19T19:10:32.382Z,4.67
2023-10-19T19:13:07.082Z,5.22
2023-10-19T19:18:27.406Z,5.30
2023-10-19T19:21:02.664Z,5.37
2023-10-19T19:23:49.178Z,6.42
2023-10-19T19:26:22.757Z,5.78
2023-10-19T19:29:08.055Z,6.53
2023-10-19T19:31:53.118Z,6.67
2023-10-19T19:34:38.947Z,6.97
2023-10-19T19:37:11.517Z,6.45
2023-10-19T19:39:55.656Z,7.50
2023-10-19T19:42:28.362Z,7.35
2023-10-19T19:45:16.066Z,6.80
2023-10-19T19:47:51.408Z,5.72
2023-10-19T19:50:24.675Z,7.00
2023-10-19T19:53:10.980Z,4.03
2023-10-19T19:55:45.351Z,3.33
2023-10-19T19:58:28.612Z,5.58
2023-10-19T20:01:02.884Z,2.80
2023-10-19T20:03:45.820Z,3.27
2023-10-19T20:06:19.387Z,3.15
2023-10-19T20:09:05.061Z,3.00
2023-10-19T20:11:51.181Z,3.50
2023-10-19T20:14:36.423Z,3.75
2023-10-19T20:17:09.151Z,3.10
2023-10-19T20:19:54.288Z,3.17
2023-10-19T20:22:41.846Z,3.80
2023-10-19T20:25:28.946Z,3.02
2023-10-19T20:28:14.588Z,3.17
2023-10-19T20:30:48.596Z,3.02
2023-10-19T20:33:32.188Z,3.00
2023-10-19T20:36:18.277Z,3.30
2023-10-19T20:38:51.349Z,3.15
2023-10-19T20:41:37.124Z,2.92
2023-10-19T20:44:10.715Z,2.90
2023-10-19T20:46:56.135Z,3.20
2023-10-19T20:49:28.745Z,2.77
2023-10-19T20:52:11.657Z,2.98
2023-10-19T20:54:44.267Z,3.10
2023-10-19T20:57:29.781Z,3.22
2023-10-19T21:00:02.566Z,2.87
2023-10-19T21:02:35.597Z,3.20
2023-10-19T21:05:23.843Z,3.20
2023-10-19T21:08:08.840Z,3.30
2023-10-19T21:10:54.328Z,3.37
2023-10-19T21:13:28.051Z,3.25
2023-10-19T21:16:13.924Z,3.27
2023-10-19T21:18:47.349Z,3.50
2023-10-19T21:21:35.938Z,3.75
2023-10-19T21:24:20.936Z,3.90
2023-10-19T21:26:53.686Z,3.98
2023-10-19T21:29:38.365Z,3.55
2023-10-19T21:32:11.098Z,4.00
2023-10-19T21:34:43.722Z,3.62
2023-10-19T21:37:29.081Z,4.00
2023-10-19T21:40:01.870Z,4.08
2023-10-19T21:42:47.887Z,4.05
2023-10-19T21:45:20.511Z,4.20
2023-10-19T21:48:05.159Z,4.33
2023-10-19T21:50:38.117Z,4.40
2023-10-19T21:53:11.202Z,4.85
2023-10-19T21:55:58.197Z,4.50
2023-10-19T21:58:31.310Z,4.67
2023-10-19T22:01:19.700Z,4.80
2023-10-19T22:03:53.482Z,4.70
2023-10-19T22:06:38.177Z,4.55
2023-10-19T22:09:12.760Z,4.85
2023-10-19T22:11:58.807Z,4.80
2023-10-19T22:14:34.958Z,5.40
2023-10-19T22:17:20.520Z,5.55
2023-10-19T22:19:54.225Z,4.87
2023-10-19T22:22:39.515Z,6.10
2023-10-19T22:25:15.373Z,4.90
2023-10-19T22:27:58.428Z,5.65
2023-10-19T22:30:31.818Z,5.80
2023-10-19T22:33:15.664Z,5.47
2023-10-19T22:35:50.813Z,4.72
2023-10-19T22:38:36.662Z,4.62
2023-10-19T22:41:10.900Z,4.80
2023-10-19T22:43:55.578Z,5.10
2023-10-19T22:46:28.994Z,4.55
2023-10-19T22:49:12.925Z,4.00
2023-10-19T22:51:45.825Z,4.33
2023-10-19T22:54:29.479Z,4.65
2023-10-19T22:57:02.860Z,4.53
2023-10-19T22:59:46.846Z,4.53
2023-10-19T23:02:20.878Z,4.40
2023-10-19T23:05:05.568Z,4.55
2023-10-19T23:07:52.793Z,4.12
2023-10-19T23:10:27.392Z,3.70
2023-10-19T23:13:13.849Z,4.97
2023-10-19T23:15:58.757Z,3.77
2023-10-19T23:18:45.094Z,3.70
2023-10-19T23:21:19.173Z,3.65
2023-10-19T23:24:02.310Z,3.90
2023-10-19T23:26:36.389Z,3.35
2023-10-19T23:29:10.964Z,3.33
2023-10-19T23:31:56.873Z,3.40
2023-10-19T23:34:30.275Z,2.80
2023-10-19T23:37:16.571Z,2.65
2023-10-19T23:39:49.237Z,2.17
2023-10-19T23:42:34.454Z,2.08
2023-10-19T23:45:09.159Z,2.30
2023-10-19T23:47:54.140Z,2.17
2023-10-19T23:50:27.064Z,2.10
2023-10-19T23:53:12.036Z,2.05
2023-10-19T23:55:48.157Z,2.47
2023-10-19T23:59:26.182Z,2.00
